createdAt,value
2023-05-01T00:00:32.168Z,1010.4277063440001
2023-05-01T00:01:31.816Z,1010.630889072
2023-05-01T00:02:32.364Z,1010.3261149799999
2023-05-01T00:03:32.235Z,1010.3261149799999
2023-05-01T00:04:32.230Z,1010.4277063440001
2023-05-01T00:05:31.743Z,1010.5292977080001
2023-05-01T00:06:32.253Z,1010.630889072
2023-05-01T00:07:32.188Z,1010.5292977080001
2023-05-01T00:08:32.171Z,1010.5292977080001
2023-05-01T00:09:31.744Z,1010.4277063440001
2023-05-01T00:10:32.134Z,1010.5292977080001
2023-05-01T00:11:32.172Z,1010.4277063440001
2023-05-01T00:12:32.169Z,1010.5292977080001
2023-05-01T00:13:31.710Z,1010.630889072
2023-05-01T00:14:32.141Z,1010.630889072
2023-05-01T00:15:32.170Z,1010.7324804360001
2023-05-01T00:16:32.202Z,1010.630889072
2023-05-01T00:17:31.764Z,1010.4277063440001
2023-05-01T00:18:32.135Z,1010.5292977080001
2023-05-01T00:19:32.176Z,1010.8340718000001
2023-05-01T00:20:32.173Z,1010.4277063440001
2023-05-01T00:21:31.752Z,1010.630889072
2023-05-01T00:22:32.123Z,1010.7324804360001
2023-05-01T00:23:32.160Z,1010.7324804360001
2023-05-01T00:24:32.145Z,1010.5292977080001
2023-05-01T00:25:31.753Z,1010.5292977080001
2023-05-01T00:26:32.177Z,1010.5292977080001
2023-05-01T00:27:32.181Z,1010.630889072
2023-05-01T00:28:32.180Z,1010.5292977080001
2023-05-01T00:29:31.708Z,1010.4277063440001
2023-05-01T00:30:32.235Z,1010.630889072
2023-05-01T00:31:32.216Z,1010.4277063440001
2023-05-01T00:32:32.207Z,1010.5292977080001
2023-05-01T00:33:31.728Z,1010.630889072
2023-05-01T00:34:32.153Z,1010.7324804360001
2023-05-01T00:35:32.206Z,1010.5292977080001
2023-05-01T00:36:32.131Z,1010.630889072
2023-05-01T00:37:31.752Z,1010.5292977080001
2023-05-01T00:38:32.165Z,1010.4277063440001
2023-05-01T00:39:32.187Z,1010.5292977080001
2023-05-01T00:40:32.145Z,1010.5292977080001
2023-05-01T00:41:31.733Z,1010.4277063440001
2023-05-01T00:42:32.141Z,1010.3261149799999
2023-05-01T00:43:32.194Z,1010.5292977080001
2023-05-01T00:44:32.187Z,1010.5292977080001
2023-05-01T00:45:31.688Z,1010.4277063440001
2023-05-01T00:46:32.289Z,1010.5292977080001
2023-05-01T00:47:32.358Z,1010.4277063440001
2023-05-01T00:48:32.158Z,1010.7324804360001
2023-05-01T00:49:31.695Z,1010.3261149799999
2023-05-01T00:50:32.167Z,1010.630889072
2023-05-01T00:51:32.186Z,1010.3261149799999
2023-05-01T00:52:32.177Z,1010.4277063440001
2023-05-01T00:53:31.682Z,1010.4277063440001
2023-05-01T00:54:32.138Z,1010.3261149799999
2023-05-01T00:55:32.166Z,1010.224523616
2023-05-01T00:56:32.157Z,1010.5292977080001
2023-05-01T00:57:31.691Z,1010.5292977080001
2023-05-01T00:58:32.186Z,1010.3261149799999
2023-05-01T00:59:32.169Z,1010.224523616
2023-05-01T01:00:32.142Z,1010.4277063440001
2023-05-01T01:01:31.744Z,1010.3261149799999
2023-05-01T01:02:32.174Z,1010.4277063440001
2023-05-01T01:03:32.204Z,1010.224523616
2023-05-01T01:04:32.215Z,1010.3261149799999
2023-05-01T01:05:31.709Z,1010.4277063440001
2023-05-01T01:06:32.181Z,1010.4277063440001
2023-05-01T01:07:32.169Z,1010.3261149799999
2023-05-01T01:08:32.756Z,1010.224523616
2023-05-01T01:09:31.687Z,1010.3261149799999
2023-05-01T01:10:32.140Z,1010.4277063440001
2023-05-01T01:11:32.191Z,1010.122932252
2023-05-01T01:12:32.150Z,1010.4277063440001
2023-05-01T01:13:31.702Z,1010.3261149799999
2023-05-01T01:14:32.192Z,1010.4277063440001
2023-05-01T01:15:32.200Z,1010.4277063440001
2023-05-01T01:16:32.200Z,1010.224523616
2023-05-01T01:17:31.734Z,1010.224523616
2023-05-01T01:18:32.156Z,1010.3261149799999
2023-05-01T01:19:32.164Z,1010.3261149799999
2023-05-01T01:20:32.143Z,1010.3261149799999
2023-05-01T01:21:31.684Z,1010.3261149799999
2023-05-01T01:22:32.164Z,1010.224523616
2023-05-01T01:23:32.162Z,1010.4277063440001
2023-05-01T01:24:32.125Z,1010.4277063440001
2023-05-01T01:25:31.850Z,1010.3261149799999
2023-05-01T01:26:32.166Z,1010.224523616
2023-05-01T01:27:32.150Z,1010.3261149799999
2023-05-01T01:28:32.163Z,1010.4277063440001
2023-05-01T01:29:31.668Z,1010.3261149799999
2023-05-01T01:30:32.161Z,1010.3261149799999
2023-05-01T01:31:32.190Z,1010.224523616
2023-05-01T01:32:32.214Z,1010.3261149799999
2023-05-01T01:33:31.682Z,1010.224523616
2023-05-01T01:34:32.165Z,1010.224523616
2023-05-01T01:35:32.166Z,1010.3261149799999
2023-05-01T01:36:32.229Z,1010.3261149799999
2023-05-01T01:37:31.662Z,1010.224523616
2023-05-01T01:38:32.161Z,1010.3261149799999
2023-05-01T01:39:32.173Z,1010.3261149799999
2023-05-01T01:40:32.420Z,1010.3261149799999
2023-05-01T01:41:31.828Z,1010.3261149799999
2023-05-01T01:42:32.356Z,1010.5292977080001
2023-05-01T01:43:32.282Z,1010.4277063440001
2023-05-01T01:44:32.379Z,1010.5292977080001
2023-05-01T01:45:31.760Z,1010.224523616
2023-05-01T01:46:32.314Z,1010.4277063440001
2023-05-01T01:47:32.432Z,1010.4277063440001
2023-05-01T01:48:32.376Z,1010.224523616
2023-05-01T01:49:31.711Z,1010.224523616
2023-05-01T01:50:32.243Z,1010.224523616
2023-05-01T01:51:32.252Z,1010.224523616
2023-05-01T01:52:32.315Z,1010.224523616
2023-05-01T01:53:31.795Z,1010.224523616
2023-05-01T01:54:32.331Z,1010.224523616
2023-05-01T01:55:32.280Z,1010.3261149799999
2023-05-01T01:56:32.306Z,1010.3261149799999
2023-05-01T01:57:31.964Z,1010.122932252
2023-05-01T01:58:32.149Z,1010.0213408879999
2023-05-01T01:59:32.135Z,1010.3261149799999
2023-05-01T02:00:32.206Z,1010.122932252
2023-05-01T02:01:31.644Z,1010.122932252
2023-05-01T02:02:32.219Z,1010.224523616
2023-05-01T02:03:32.222Z,1010.224523616
2023-05-01T02:04:32.161Z,1010.3261149799999
2023-05-01T02:05:31.597Z,1010.3261149799999
2023-05-01T02:06:32.188Z,1010.122932252
2023-05-01T02:07:32.172Z,1010.224523616
2023-05-01T02:08:32.154Z,1010.3261149799999
2023-05-01T02:09:31.630Z,1010.224523616
2023-05-01T02:10:32.141Z,1010.3261149799999
2023-05-01T02:11:32.142Z,1010.122932252
2023-05-01T02:12:32.174Z,1009.919749524
2023-05-01T02:13:31.632Z,1010.122932252
2023-05-01T02:14:32.203Z,1010.0213408879999
2023-05-01T02:15:32.166Z,1010.0213408879999
2023-05-01T02:16:32.193Z,1010.3261149799999
2023-05-01T02:17:31.748Z,1010.122932252
2023-05-01T02:18:32.145Z,1010.122932252
2023-05-01T02:19:32.154Z,1010.122932252
2023-05-01T02:20:32.164Z,1010.224523616
2023-05-01T02:21:31.627Z,1010.224523616
2023-05-01T02:22:32.151Z,1010.0213408879999
2023-05-01T02:23:32.147Z,1010.224523616
2023-05-01T02:24:32.158Z,1010.3261149799999
2023-05-01T02:25:31.638Z,1010.122932252
2023-05-01T02:26:32.142Z,1010.122932252
2023-05-01T02:27:32.131Z,1010.0213408879999
2023-05-01T02:28:32.143Z,1009.81815816
2023-05-01T02:29:31.619Z,1010.122932252
2023-05-01T02:30:32.204Z,1010.0213408879999
2023-05-01T02:31:32.202Z,1010.224523616
2023-05-01T02:32:32.228Z,1009.81815816
2023-05-01T02:33:31.616Z,1009.81815816
2023-05-01T02:34:32.159Z,1010.0213408879999
2023-05-01T02:35:32.163Z,1009.919749524
2023-05-01T02:36:32.152Z,1009.919749524
2023-05-01T02:37:31.591Z,1009.919749524
2023-05-01T02:38:32.158Z,1009.7165667959999
2023-05-01T02:39:32.137Z,1010.122932252
2023-05-01T02:40:32.185Z,1009.919749524
2023-05-01T02:41:31.617Z,1009.919749524
2023-05-01T02:42:32.174Z,1009.81815816
2023-05-01T02:43:32.143Z,1009.81815816
2023-05-01T02:44:32.186Z,1009.81815816
2023-05-01T02:45:31.624Z,1009.81815816
2023-05-01T02:46:32.154Z,1009.7165667959999
2023-05-01T02:47:32.169Z,1010.0213408879999
2023-05-01T02:48:32.172Z,1009.919749524
2023-05-01T02:49:31.622Z,1009.919749524
2023-05-01T02:50:32.158Z,1009.919749524
2023-05-01T02:51:32.158Z,1009.81815816
2023-05-01T02:52:32.175Z,1009.7165667959999
2023-05-01T02:53:31.646Z,1009.7165667959999
2023-05-01T02:54:32.151Z,1009.919749524
2023-05-01T02:55:32.162Z,1009.81815816
2023-05-01T02:56:32.171Z,1009.81815816
2023-05-01T02:57:32.063Z,1009.81815816
2023-05-01T02:58:32.168Z,1009.81815816
2023-05-01T02:59:32.162Z,1009.7165667959999
2023-05-01T03:00:32.175Z,1009.6149754319999
2023-05-01T03:01:31.658Z,1009.6149754319999
2023-05-01T03:02:32.296Z,1009.6149754319999
2023-05-01T03:03:32.138Z,1009.7165667959999
2023-05-01T03:04:32.194Z,1009.513384068
2023-05-01T03:05:31.576Z,1009.513384068
2023-05-01T03:06:32.201Z,1009.6149754319999
2023-05-01T03:07:32.645Z,1009.4117927039999
2023-05-01T03:08:32.192Z,1009.6149754319999
2023-05-01T03:09:31.576Z,1009.6149754319999
2023-05-01T03:10:32.182Z,1009.6149754319999
2023-05-01T03:11:32.297Z,1009.513384068
2023-05-01T03:12:32.320Z,1009.4117927039999
2023-05-01T03:13:31.578Z,1009.4117927039999
2023-05-01T03:14:32.306Z,1009.6149754319999
2023-05-01T03:15:32.131Z,1009.4117927039999
2023-05-01T03:16:32.232Z,1009.513384068
2023-05-01T03:17:32.011Z,1009.513384068
2023-05-01T03:18:32.309Z,1009.6149754319999
2023-05-01T03:19:32.248Z,1009.6149754319999
2023-05-01T03:20:32.320Z,1009.7165667959999
2023-05-01T03:21:31.572Z,1009.7165667959999
2023-05-01T03:22:32.147Z,1009.6149754319999
2023-05-01T03:23:32.099Z,1009.4117927039999
2023-05-01T03:24:32.340Z,1009.6149754319999
2023-05-01T03:25:31.740Z,1009.6149754319999
2023-05-01T03:26:32.147Z,1009.513384068
2023-05-01T03:27:32.127Z,1009.3102013399999
2023-05-01T03:28:32.146Z,1009.3102013399999
2023-05-01T03:29:31.753Z,1009.3102013399999
2023-05-01T03:30:32.175Z,1009.6149754319999
2023-05-01T03:31:32.200Z,1009.6149754319999
2023-05-01T03:32:32.261Z,1009.513384068
2023-05-01T03:33:31.647Z,1009.513384068
2023-05-01T03:34:32.292Z,1009.513384068
2023-05-01T03:35:32.224Z,1009.7165667959999
2023-05-01T03:36:32.279Z,1009.3102013399999
2023-05-01T03:37:31.636Z,1009.3102013399999
2023-05-01T03:38:32.137Z,1009.6149754319999
2023-05-01T03:39:32.199Z,1009.6149754319999
2023-05-01T03:40:32.226Z,1009.4117927039999
2023-05-01T03:41:31.683Z,1009.4117927039999
2023-05-01T03:42:32.303Z,1009.513384068
2023-05-01T03:43:32.236Z,1009.513384068
2023-05-01T03:44:32.125Z,1009.7165667959999
2023-05-01T03:45:31.694Z,1009.7165667959999
2023-05-01T03:46:32.243Z,1009.4117927039999
2023-05-01T03:47:32.192Z,1009.4117927039999
2023-05-01T03:48:32.242Z,1009.4117927039999
2023-05-01T03:49:31.678Z,1009.4117927039999
2023-05-01T03:50:32.172Z,1009.4117927039999
2023-05-01T03:51:32.114Z,1009.513384068
2023-05-01T03:52:32.129Z,1009.6149754319999
2023-05-01T03:53:31.560Z,1009.6149754319999
2023-05-01T03:54:32.399Z,1009.513384068
2023-05-01T03:55:32.149Z,1009.6149754319999
2023-05-01T03:56:32.150Z,1009.3102013399999
2023-05-01T03:57:31.826Z,1009.3102013399999
2023-05-01T03:58:32.122Z,1009.208609976
2023-05-01T03:59:32.130Z,1009.3102013399999
2023-05-01T04:00:32.112Z,1009.4117927039999
2023-05-01T04:01:31.633Z,1009.4117927039999
2023-05-01T04:02:32.253Z,1009.3102013399999
2023-05-01T04:03:32.360Z,1009.4117927039999
2023-05-01T04:04:32.323Z,1009.208609976
2023-05-01T04:05:31.591Z,1009.208609976
2023-05-01T04:06:32.277Z,1009.4117927039999
2023-05-01T04:07:32.112Z,1009.3102013399999
2023-05-01T04:08:32.128Z,1009.208609976
2023-05-01T04:09:31.557Z,1009.208609976
2023-05-01T04:10:32.152Z,1009.208609976
2023-05-01T04:11:32.203Z,1009.4117927039999
2023-05-01T04:12:32.142Z,1009.208609976
2023-05-01T04:13:31.700Z,1009.208609976
2023-05-01T04:14:32.125Z,1009.513384068
2023-05-01T04:15:32.126Z,1009.3102013399999
2023-05-01T04:16:32.344Z,1009.3102013399999
2023-05-01T04:17:31.615Z,1009.3102013399999
2023-05-01T04:18:32.122Z,1009.1070186119999
2023-05-01T04:19:32.105Z,1009.3102013399999
2023-05-01T04:20:32.163Z,1009.208609976
2023-05-01T04:21:31.586Z,1009.208609976
2023-05-01T04:22:32.144Z,1009.208609976
2023-05-01T04:23:32.109Z,1009.208609976
2023-05-01T04:24:32.109Z,1009.3102013399999
2023-05-01T04:25:31.546Z,1009.3102013399999
2023-05-01T04:26:32.278Z,1009.1070186119999
2023-05-01T04:27:32.155Z,1009.3102013399999
2023-05-01T04:28:32.145Z,1009.4117927039999
2023-05-01T04:29:31.539Z,1009.4117927039999
2023-05-01T04:30:32.152Z,1009.1070186119999
2023-05-01T04:31:32.148Z,1009.208609976
2023-05-01T04:32:32.241Z,1009.1070186119999
2023-05-01T04:33:31.520Z,1009.1070186119999
2023-05-01T04:34:32.153Z,1009.208609976
2023-05-01T04:35:32.156Z,1009.1070186119999
2023-05-01T04:36:32.115Z,1009.0392910360001
2023-05-01T04:37:31.508Z,1009.0392910360001
2023-05-01T04:38:32.153Z,1009.208609976
2023-05-01T04:39:32.168Z,1009.3102013399999
2023-05-01T04:40:32.136Z,1009.4117927039999
2023-05-01T04:41:31.483Z,1009.4117927039999
2023-05-01T04:42:32.166Z,1009.208609976
2023-05-01T04:43:32.114Z,1009.208609976
2023-05-01T04:44:32.124Z,1009.208609976
2023-05-01T04:45:31.469Z,1009.208609976
2023-05-01T04:46:32.170Z,1009.4117927039999
2023-05-01T04:47:32.156Z,1009.208609976
2023-05-01T04:48:32.125Z,1009.3102013399999
2023-05-01T04:49:31.511Z,1009.3102013399999
2023-05-01T04:50:32.209Z,1009.3102013399999
2023-05-01T04:51:32.196Z,1009.4117927039999
2023-05-01T04:52:32.133Z,1009.3102013399999
2023-05-01T04:53:31.475Z,1009.3102013399999
2023-05-01T04:54:32.249Z,1009.4117927039999
2023-05-01T04:55:32.121Z,1009.1070186119999
2023-05-01T04:56:32.103Z,1009.208609976
2023-05-01T04:57:31.538Z,1009.208609976
2023-05-01T04:58:32.144Z,1009.208609976
2023-05-01T04:59:32.111Z,1009.1070186119999
2023-05-01T05:00:32.122Z,1009.3102013399999
2023-05-01T05:01:31.526Z,1009.3102013399999
2023-05-01T05:02:32.239Z,1009.1070186119999
2023-05-01T05:03:32.357Z,1009.208609976
2023-05-01T05:04:32.128Z,1009.3102013399999
2023-05-01T05:05:31.524Z,1009.3102013399999
2023-05-01T05:06:32.167Z,1009.1070186119999
2023-05-01T05:07:32.135Z,1009.208609976
2023-05-01T05:08:32.191Z,1009.4117927039999
2023-05-01T05:09:31.490Z,1009.4117927039999
2023-05-01T05:10:32.173Z,1009.208609976
2023-05-01T05:11:32.148Z,1009.208609976
2023-05-01T05:12:32.107Z,1009.3102013399999
2023-05-01T05:13:31.456Z,1009.3102013399999
2023-05-01T05:14:32.160Z,1009.1070186119999
2023-05-01T05:15:32.125Z,1009.3102013399999
2023-05-01T05:16:32.217Z,1009.1070186119999
2023-05-01T05:17:31.523Z,1009.1070186119999
2023-05-01T05:18:32.244Z,1009.0392910360001
2023-05-01T05:19:32.134Z,1009.1070186119999
2023-05-01T05:20:32.122Z,1009.1070186119999
2023-05-01T05:21:31.495Z,1009.1070186119999
2023-05-01T05:22:32.182Z,1009.0392910360001
2023-05-01T05:23:32.121Z,1009.208609976
2023-05-01T05:24:32.138Z,1009.1070186119999
2023-05-01T05:25:31.472Z,1009.1070186119999
2023-05-01T05:26:32.153Z,1009.208609976
2023-05-01T05:27:32.113Z,1009.0392910360001
2023-05-01T05:28:32.225Z,1009.208609976
2023-05-01T05:29:31.478Z,1009.208609976
2023-05-01T05:30:32.143Z,1009.1070186119999
2023-05-01T05:31:32.132Z,1009.0392910360001
2023-05-01T05:32:32.223Z,1009.0392910360001
2023-05-01T05:33:31.447Z,1009.0392910360001
2023-05-01T05:34:32.120Z,1009.0392910360001
2023-05-01T05:35:32.119Z,1009.3102013399999
2023-05-01T05:36:32.138Z,1009.3102013399999
2023-05-01T05:37:31.930Z,1009.3102013399999
2023-05-01T05:38:32.153Z,1009.1070186119999
2023-05-01T05:39:32.114Z,1009.0392910360001
2023-05-01T05:40:32.130Z,1009.208609976
2023-05-01T05:41:31.456Z,1009.208609976
2023-05-01T05:42:32.149Z,1009.0392910360001
2023-05-01T05:43:32.137Z,1009.3102013399999
2023-05-01T05:44:32.112Z,1009.1070186119999
2023-05-01T05:45:31.417Z,1009.1070186119999
2023-05-01T05:46:32.269Z,1009.0392910360001
2023-05-01T05:47:32.183Z,1009.3102013399999
2023-05-01T05:48:32.148Z,1009.208609976
2023-05-01T05:49:31.446Z,1009.208609976
2023-05-01T05:50:32.166Z,1009.208609976
2023-05-01T05:51:32.122Z,1009.208609976
2023-05-01T05:52:32.122Z,1009.208609976
2023-05-01T05:53:31.452Z,1009.208609976
2023-05-01T05:54:32.118Z,1009.208609976
2023-05-01T05:55:32.121Z,1009.1070186119999
2023-05-01T05:56:32.132Z,1009.208609976
2023-05-01T05:57:31.731Z,1009.208609976
2023-05-01T05:58:32.162Z,1009.1070186119999
2023-05-01T05:59:32.122Z,1008.937699672
2023-05-01T06:00:32.160Z,1009.0392910360001
2023-05-01T06:01:31.446Z,1009.0392910360001
2023-05-01T06:02:32.293Z,1009.0392910360001
2023-05-01T06:03:32.210Z,1009.208609976
2023-05-01T06:04:32.123Z,1009.0392910360001
2023-05-01T06:05:31.467Z,1009.0392910360001
2023-05-01T06:06:32.217Z,1008.937699672
2023-05-01T06:07:32.298Z,1008.937699672
2023-05-01T06:08:32.112Z,1009.1070186119999
2023-05-01T06:09:31.426Z,1009.1070186119999
2023-05-01T06:10:32.142Z,1009.0392910360001
2023-05-01T06:11:32.123Z,1008.937699672
2023-05-01T06:12:32.121Z,1009.1070186119999
2023-05-01T06:13:31.444Z,1009.1070186119999
2023-05-01T06:14:32.171Z,1009.0392910360001
2023-05-01T06:15:32.165Z,1009.1070186119999
2023-05-01T06:16:32.260Z,1009.0392910360001
2023-05-01T06:17:32.162Z,1009.1070186119999
2023-05-01T06:18:32.124Z,1009.1070186119999
2023-05-01T06:19:32.121Z,1009.1070186119999
2023-05-01T06:20:32.126Z,1009.208609976
2023-05-01T06:21:32.105Z,1008.937699672
2023-05-01T06:22:32.171Z,1009.1070186119999
2023-05-01T06:23:32.197Z,1009.0392910360001
2023-05-01T06:24:32.120Z,1009.1070186119999
2023-05-01T06:25:31.458Z,1009.1070186119999
2023-05-01T06:26:32.116Z,1009.0392910360001
2023-05-01T06:27:32.276Z,1008.937699672
2023-05-01T06:28:32.110Z,1009.1070186119999
2023-05-01T06:29:31.414Z,1009.1070186119999
2023-05-01T06:30:32.163Z,1008.937699672
2023-05-01T06:31:32.265Z,1008.836108308
2023-05-01T06:32:32.202Z,1009.3102013399999
2023-05-01T06:33:31.414Z,1009.3102013399999
2023-05-01T06:34:32.154Z,1008.937699672
2023-05-01T06:35:32.139Z,1009.0392910360001
2023-05-01T06:36:32.169Z,1008.836108308
2023-05-01T06:37:32.270Z,1009.0392910360001
2023-05-01T06:38:32.110Z,1009.1070186119999
2023-05-01T06:39:32.160Z,1008.937699672
2023-05-01T06:40:32.168Z,1008.937699672
2023-05-01T06:41:31.405Z,1008.937699672
2023-05-01T06:42:32.097Z,1009.0392910360001
2023-05-01T06:43:32.131Z,1008.937699672
2023-05-01T06:44:32.935Z,1009.0392910360001
2023-05-01T06:45:32.122Z,1008.937699672
2023-05-01T06:46:32.176Z,1008.937699672
2023-05-01T06:47:32.480Z,1008.937699672
2023-05-01T06:48:32.123Z,1008.836108308
2023-05-01T06:49:32.095Z,1008.937699672
2023-05-01T06:50:32.120Z,1008.734516944
2023-05-01T06:51:32.170Z,1008.836108308
2023-05-01T06:52:32.103Z,1008.836108308
2023-05-01T06:53:32.128Z,1008.734516944
2023-05-01T06:54:32.117Z,1008.734516944
2023-05-01T06:55:33.772Z,1008.734516944
2023-05-01T06:56:32.133Z,1008.836108308
2023-05-01T06:57:32.237Z,1009.0392910360001
2023-05-01T06:58:32.154Z,1009.1070186119999
2023-05-01T06:59:32.127Z,1008.937699672
2023-05-01T07:00:32.138Z,1008.937699672
2023-05-01T07:01:34.688Z,1009.0392910360001
2023-05-01T07:02:32.166Z,1009.0392910360001
2023-05-01T07:03:32.348Z,1008.836108308
2023-05-01T07:04:32.123Z,1008.63292558
2023-05-01T07:05:32.165Z,1008.63292558
2023-05-01T07:06:32.119Z,1008.734516944
2023-05-01T07:07:32.170Z,1008.63292558
2023-05-01T07:08:32.137Z,1008.836108308
2023-05-01T07:09:32.173Z,1008.836108308
2023-05-01T07:10:32.109Z,1008.734516944
2023-05-01T07:11:32.179Z,1008.937699672
2023-05-01T07:12:32.136Z,1008.836108308
2023-05-01T07:13:32.088Z,1009.0392910360001
2023-05-01T07:14:32.158Z,1008.63292558
2023-05-01T07:15:32.134Z,1008.734516944
2023-05-01T07:16:32.152Z,1008.63292558
2023-05-01T07:17:32.118Z,1008.734516944
2023-05-01T07:18:32.102Z,1008.734516944
2023-05-01T07:19:32.167Z,1008.836108308
2023-05-01T07:20:32.113Z,1008.531334216
2023-05-01T07:21:32.151Z,1008.937699672
2023-05-01T07:22:32.118Z,1008.63292558
2023-05-01T07:23:32.153Z,1008.734516944
2023-05-01T07:24:32.139Z,1008.63292558
2023-05-01T07:25:32.074Z,1008.734516944
2023-05-01T07:26:32.109Z,1008.734516944
2023-05-01T07:27:32.105Z,1008.734516944
2023-05-01T07:28:32.107Z,1008.836108308
2023-05-01T07:29:32.088Z,1008.63292558
2023-05-01T07:30:32.130Z,1008.734516944
2023-05-01T07:31:32.187Z,1008.734516944
2023-05-01T07:32:32.181Z,1008.734516944
2023-05-01T07:33:32.099Z,1008.531334216
2023-05-01T07:34:32.119Z,1008.531334216
2023-05-01T07:35:32.153Z,1008.734516944
2023-05-01T07:36:32.140Z,1008.63292558
2023-05-01T07:37:32.106Z,1008.531334216
2023-05-01T07:38:32.174Z,1008.734516944
2023-05-01T07:39:32.112Z,1008.734516944
2023-05-01T07:40:32.103Z,1008.429742852
2023-05-01T07:41:32.099Z,1008.531334216
2023-05-01T07:42:32.123Z,1008.429742852
2023-05-01T07:43:32.126Z,1008.429742852
2023-05-01T07:44:32.121Z,1008.531334216
2023-05-01T07:45:32.182Z,1008.531334216
2023-05-01T07:46:32.181Z,1008.531334216
2023-05-01T07:47:32.182Z,1008.328151488
2023-05-01T07:48:32.153Z,1008.429742852
2023-05-01T07:49:32.148Z,1008.429742852
2023-05-01T07:50:32.083Z,1008.63292558
2023-05-01T07:51:32.153Z,1008.531334216
2023-05-01T07:52:32.121Z,1008.429742852
2023-05-01T07:53:32.097Z,1008.328151488
2023-05-01T07:54:32.108Z,1008.429742852
2023-05-01T07:55:32.159Z,1008.63292558
2023-05-01T07:56:32.167Z,1008.531334216
2023-05-01T07:57:32.096Z,1008.429742852
2023-05-01T07:58:32.139Z,1008.328151488
2023-05-01T07:59:32.109Z,1008.429742852
2023-05-01T08:00:32.193Z,1008.531334216
2023-05-01T08:01:32.096Z,1008.429742852
2023-05-01T08:02:32.189Z,1008.429742852
2023-05-01T08:03:32.236Z,1008.429742852
2023-05-01T08:04:32.132Z,1008.531334216
2023-05-01T08:05:32.112Z,1008.328151488
2023-05-01T08:06:32.249Z,1008.429742852
2023-05-01T08:07:32.380Z,1008.429742852
2023-05-01T08:08:32.124Z,1008.429742852
2023-05-01T08:09:32.109Z,1008.328151488
2023-05-01T08:10:32.133Z,1008.429742852
2023-05-01T08:11:32.150Z,1008.63292558
2023-05-01T08:12:32.130Z,1008.328151488
2023-05-01T08:13:32.141Z,1008.429742852
2023-05-01T08:14:32.100Z,1008.531334216
2023-05-01T08:15:32.151Z,1008.429742852
2023-05-01T08:16:32.228Z,1008.429742852
2023-05-01T08:17:32.180Z,1008.531334216
2023-05-01T08:18:32.117Z,1008.429742852
2023-05-01T08:19:32.147Z,1008.531334216
2023-05-01T08:20:32.139Z,1008.531334216
2023-05-01T08:21:32.169Z,1008.63292558
2023-05-01T08:22:32.180Z,1008.429742852
2023-05-01T08:23:32.131Z,1008.531334216
2023-05-01T08:24:32.120Z,1008.328151488
2023-05-01T08:25:32.112Z,1008.429742852
2023-05-01T08:26:32.085Z,1008.429742852
2023-05-01T08:27:32.180Z,1008.429742852
2023-05-01T08:28:32.145Z,1008.531334216
2023-05-01T08:29:32.135Z,1008.429742852
2023-05-01T08:30:32.108Z,1008.63292558
2023-05-01T08:31:32.209Z,1008.63292558
2023-05-01T08:32:32.190Z,1008.531334216
2023-05-01T08:33:32.163Z,1008.429742852
2023-05-01T08:34:32.110Z,1008.429742852
2023-05-01T08:35:32.154Z,1008.429742852
2023-05-01T08:36:32.088Z,1008.328151488
2023-05-01T08:37:32.111Z,1008.429742852
2023-05-01T08:38:32.107Z,1008.429742852
2023-05-01T08:39:32.136Z,1008.429742852
2023-05-01T08:40:32.100Z,1008.429742852
2023-05-01T08:41:32.166Z,1008.328151488
2023-05-01T08:42:32.450Z,1008.429742852
2023-05-01T08:43:32.145Z,1008.328151488
2023-05-01T08:44:32.093Z,1008.226560124
2023-05-01T08:45:32.161Z,1008.226560124
2023-05-01T08:46:32.183Z,1008.328151488
2023-05-01T08:47:32.681Z,1008.226560124
2023-05-01T08:48:32.101Z,1008.531334216
2023-05-01T08:49:32.143Z,1008.328151488
2023-05-01T08:50:32.099Z,1008.023377396
2023-05-01T08:51:32.122Z,1008.328151488
2023-05-01T08:52:32.113Z,1008.328151488
2023-05-01T08:53:32.125Z,1008.328151488
2023-05-01T08:54:32.088Z,1008.429742852
2023-05-01T08:55:32.127Z,1008.531334216
2023-05-01T08:56:32.119Z,1008.328151488
2023-05-01T08:57:32.152Z,1008.429742852
2023-05-01T08:58:32.109Z,1008.328151488
2023-05-01T08:59:32.092Z,1008.226560124
2023-05-01T09:00:32.102Z,1008.531334216
2023-05-01T09:01:32.250Z,1008.226560124
2023-05-01T09:02:32.128Z,1008.328151488
2023-05-01T09:03:32.241Z,1008.328151488
2023-05-01T09:04:32.084Z,1008.1249687599999
2023-05-01T09:05:32.122Z,1008.226560124
2023-05-01T09:06:32.169Z,1008.328151488
2023-05-01T09:07:32.097Z,1008.226560124
2023-05-01T09:08:32.102Z,1008.328151488
2023-05-01T09:09:32.119Z,1008.328151488
2023-05-01T09:10:33.016Z,1008.226560124
2023-05-01T09:11:32.104Z,1008.1249687599999
2023-05-01T09:12:32.078Z,1008.226560124
2023-05-01T09:13:32.108Z,1008.023377396
2023-05-01T09:14:32.117Z,1008.1249687599999
2023-05-01T09:15:32.104Z,1008.023377396
2023-05-01T09:16:32.144Z,1008.328151488
2023-05-01T09:17:32.205Z,1008.531334216
2023-05-01T09:18:32.083Z,1008.63292558
2023-05-01T09:19:32.148Z,1008.328151488
2023-05-01T09:20:32.082Z,1008.226560124
2023-05-01T09:21:32.110Z,1008.328151488
2023-05-01T09:22:32.078Z,1008.328151488
2023-05-01T09:23:32.089Z,1008.226560124
2023-05-01T09:24:32.102Z,1008.429742852
2023-05-01T09:25:32.055Z,1008.429742852
2023-05-01T09:26:32.114Z,1008.226560124
2023-05-01T09:27:32.708Z,1008.226560124
2023-05-01T09:28:32.103Z,1008.429742852
2023-05-01T09:29:32.125Z,1008.023377396
2023-05-01T09:30:32.105Z,1008.328151488
2023-05-01T09:31:32.113Z,1008.226560124
2023-05-01T09:32:32.206Z,1008.023377396